Tiempo atmosférico en la estación meteorológica de Las Palmas de Gran Canaria, Tafira, Las Palmas (269 m.)



Fecha
DESCASC
Temp. máxima en grados centígrados (hora)
DESCASC
Temp. mínima en grados centígrados (hora)
DESCASC
Temp. media en grados centígrados
DESCASC
Racha de viento máxima en m/sg (hora)
DESCASC
Velocidad máxima media en intervalos de 10 minutos(hora)
DESCASC
Precipitaciones diarias en mm
DESCASC
Precipitaciones de 00:00 a 06:00 en mm
DESCASC
Precipitaciones de 06:00 a 12:00 en mm
DESCASC
Precipitaciones de 12:00 a 18:00 en mm
DESCASC
Precipitaciones de 18:00 a 24:00 en mm
DESCASC
31-05-2020 23.1 (13:30) 17.2 (07:10) 20.2 8.89 (08:30) 5 (08:20) 0 0 0 0 0
30-05-2020 22 (12:00) 18.1 (05:00) 20.1 8.33 (00:10) 4.72 (12:20) 0 0 0 0 0
29-05-2020 21.7 (15:30) 17 (03:10) 19.4 10.28 (14:10) 6.67 (14:30) 0 0 0 0 0
28-05-2020 22.7 (12:10) 16 (00:00) 19.4 7.78 (19:10) 5.28 (17:50) 0 0 0 0 0
27-05-2020 25.7 (17:00) 15.8 (00:00) 20.8 6.39 (22:00) 3.33 (05:40) 0 0 0 0 0
26-05-2020 24.7 (13:40) 16.3 (00:00) 20.5 7.78 (02:20) 5 (02:10) 0 0 0 0 0
25-05-2020 25.9 (17:10) 16.6 (00:00) 21.3 6.39 (04:10) 3.89 (01:00) 0 0 0 0 0
24-05-2020 27.8 (14:30) 18.2 (00:00) 23 5.83 (20:10) 3.61 (23:59) 0 0 0 0 0
23-05-2020 23.4 (13:40) 17.3 (00:00) 20.3 9.17 (01:10) 5.28 (00:30) 0 0 0 0 0
22-05-2020 21.3 (16:10) 16.1 (00:00) 18.7 9.72 (23:50) 5.56 (23:50) 0 0 0 0 0
21-05-2020 20.5 (15:30) 16.2 (00:00) 18.4 10.28 (15:20) 5.56 (17:10) 0 0 0 0 0
20-05-2020 22.1 (16:10) 16.7 (00:00) 19.4 8.61 (14:50) 4.72 (01:40) 0 0 0 0 0
19-05-2020 20.7 (12:10) 17.1 (00:00) 18.9 10.28 (18:50) 6.11 (16:40) 0 0 0 0 0
18-05-2020 20.4 (14:10) 15.7 (00:00) 18 8.61 (17:20) 5.28 (17:10) 0 0 0 0 0
17-05-2020 18.8 (17:00) 16.3 (00:00) 17.5 7.5 (17:30) 4.17 (17:50) 0 0 0 0 0
16-05-2020 20.3 (14:10) 16 (00:00) 18.1 10.28 (10:30) 6.11 (11:20) 0 0 0 0 0
15-05-2020 19.8 (14:20) 15.7 (00:00) 17.7 12.5 (15:20) 7.22 (08:20) 0.8 0 0.8 0 0
14-05-2020 20.9 (14:10) 16.2 (00:00) 18.6 13.89 (15:30) 7.78 (18:40) 0 0 0 0 0
13-05-2020 23.4 (12:40) 16.8 (00:00) 20.1 13.61 (15:30) 8.89 (15:30) 0 0 0 0 0
12-05-2020 21.3 (15:20) 15.6 (00:00) 18.4 13.61 (22:00) 7.22 (23:10) 0.6 0 0.6 0 0
11-05-2020 23.4 (15:30) 17.3 (00:00) 20.3 13.61 (21:00) 7.22 (16:20) 0.4 0 0 0 0.4
10-05-2020 22.4 (13:20) 16.6 (00:00) 19.5 14.17 (17:50) 7.78 (16:50) 0 0 0 0 0
09-05-2020 22 (13:10) 16.6 (00:00) 19.3 12.22 (13:20) 7.22 (13:30) 0 0 0 0 0
08-05-2020 21.4 (16:30) 15.2 (00:00) 18.3 9.44 (14:40) 6.11 (14:50) 0 0 0 0 0
07-05-2020 21.3 (13:20) 16.2 (00:00) 18.8 8.89 (13:50) 5.28 (16:30) 0 0 0 0 0
06-05-2020 21.2 (16:10) 15.3 (00:00) 18.3 7.5 (15:50) 4.72 (16:30) 0 0 0 0 0
05-05-2020 21.4 (13:50) 15.6 (00:00) 18.5 8.06 (15:20) 4.17 (08:50) 0 0 0 0 0
04-05-2020 20.7 (16:10) 16.7 (00:00) 18.7 6.39 (19:40) 3.89 (19:10) 0 0 0 0 0
03-05-2020 22.1 (13:30) 15.1 (00:00) 18.6 6.39 (01:40) 3.61 (01:40) 0 0 0 0 0

Gráficas

Temp. máximas Temp. mínimas Temp. medias Precipitaciones Rachas de viento máximas Velocidades máximas media en intervalos de 10 minutos

Datos horarios

Fecha y hora oficial Temperatura (ºC) Velocidad del viento (km/h) Dirección del viento Racha (km/h) Dirección de racha Precipitación (mm) Presión (hPa) Tendencia (hPa) Humedad (%)
2020-06-01 23:00:00 18.8 5 Nordeste 9 Nordeste 0 -- -- 84
2020-06-01 22:00:00 19.1 4 Nordeste 9 Nordeste 0 -- -- 86
2020-06-01 21:00:00 19.6 4 Nordeste 8 Nordeste 0 -- -- 85
2020-06-01 20:00:00 19.5 4 Nordeste 9 Este 0 -- -- 87
2020-06-01 19:00:00 19.6 5 Este 12 Sudeste 0 -- -- 88
2020-06-01 18:00:00 19.8 4 Nordeste 12 Nordeste 0 -- -- 86
2020-06-01 17:00:00 19.9 6 Este 14 Nordeste 0 -- -- 84
2020-06-01 16:00:00 20.6 6 Este 12 Este 0 -- -- 78
2020-06-01 15:00:00 20.9 7 Este 12 Este 0 -- -- 74
2020-06-01 14:00:00 20.8 5 Este 13 Nordeste 0 -- -- 74
2020-06-01 13:00:00 21.4 6 Este 16 Nordeste 0 -- -- 72
2020-06-01 12:00:00 21.8 9 Este 17 Este 0 -- -- 69
2020-06-01 11:00:00 22.2 8 Este 16 Este 0 -- -- 72
2020-06-01 10:00:00 21 8 Este 15 Este 0 -- -- 74
2020-06-01 09:00:00 20.1 2 Este 5 Sur 0 -- -- 66
2020-06-01 08:00:00 17.3 5 Sur 9 Sur 0 -- -- 70
2020-06-01 07:00:00 16.3 5 Sur 10 Sur 0 -- -- 80
2020-06-01 06:00:00 16.5 8 Sur 12 Sur 0 -- -- 74
2020-06-01 05:00:00 16.7 7 Sur 10 Sur 0 -- -- 75
2020-06-01 04:00:00 16.7 6 Sur 9 Sur 0 -- -- 76
2020-06-01 03:00:00 16.9 4 Sudoeste 6 Sudoeste 0 -- -- 80
2020-06-01 02:00:00 17.2 3 Sudoeste 6 Sur 0 -- -- 80
2020-06-01 01:00:00 17.9 5 Oeste 9 Oeste 0 -- -- 81
2020-06-01 00:00:00 18.4 5 Noroeste 14 Noroeste 0 -- -- 88
2020-05-31 23:00:00 18.7 9 Noroeste 15 Noroeste 0 -- -- 86
2020-05-31 22:00:00 19.1 11 Noroeste 17 Noroeste 0 -- -- 85
2020-05-31 21:00:00 19.5 11 Noroeste 20 Noroeste 0 -- -- 83
2020-05-31 20:00:00 20.6 10 Noroeste 23 Noroeste 0 -- -- 78
2020-05-31 19:00:00 21.9 13 Noroeste 25 Noroeste 0 -- -- 69
2020-05-31 18:00:00 21.6 14 Noroeste 27 Noroeste 0 -- -- 71
2020-05-31 17:00:00 22.1 14 Noroeste 28 Noroeste 0 -- -- 71
2020-05-31 16:00:00 22.6 14 Norte 31 Norte 0 -- -- 71
2020-05-31 15:00:00 22.9 17 Noroeste 29 Norte 0 -- -- 67
2020-05-31 14:00:00 22.8 14 Norte 30 Norte 0 -- -- 67
2020-05-31 13:00:00 22.7 13 Noroeste 29 Noroeste 0 -- -- 65
2020-05-31 12:00:00 22.4 15 Noroeste 23 Noroeste 0 -- -- 64
2020-05-31 11:00:00 21.1 10 Noroeste 23 Noroeste 0 -- -- 72
2020-05-31 10:00:00 20.1 12 Noroeste 24 Noroeste 0 -- -- 79
2020-05-31 09:00:00 18.9 14 Noroeste 32 Oeste 0 -- -- 82
2020-05-31 08:00:00 18.1 12 Noroeste 20 Oeste 0 -- -- 81
2020-05-31 07:00:00 17.4 6 Noroeste 17 Oeste 0 -- -- 83
2020-05-31 06:00:00 17.6 9 Oeste 20 Oeste 0 -- -- 87
2020-05-31 05:00:00 17.6 9 Noroeste 20 Oeste 0 -- -- 89
2020-05-31 04:00:00 18.1 9 Noroeste 18 Oeste 0 -- -- 86
2020-05-31 03:00:00 18.3 8 Noroeste 16 Noroeste 0 -- -- 84
2020-05-31 02:00:00 18.3 9 Noroeste 18 Oeste 0 -- -- 84
2020-05-31 01:00:00 18.2 9 Noroeste 21 Oeste 0 -- -- 86
2020-05-31 00:00:00 18.1 12 Noroeste 23 Noroeste 0 -- -- 84
2020-05-30 23:00:00 18.1 10 Noroeste 19 Oeste 0 -- -- 84
2020-05-30 22:00:00 18.2 10 Oeste 22 Noroeste 0 -- -- 84
2020-05-30 21:00:00 18.8 12 Noroeste 26 Noroeste 0 -- -- 83
2020-05-30 20:00:00 19.5 14 Noroeste 25 Noroeste 0 -- -- 78
2020-05-30 19:00:00 20.7 12 Noroeste 24 Noroeste 0 -- -- 71
2020-05-30 18:00:00 20.5 12 Noroeste 23 Noroeste 0 -- -- 76
2020-05-30 17:00:00 19.6 14 Noroeste 24 Noroeste 0 -- -- 77
2020-05-30 16:00:00 19.7 12 Noroeste 19 Noroeste 0 -- -- 78
2020-05-30 15:00:00 19.4 11 Noroeste 22 Norte 0 -- -- 78
2020-05-30 14:00:00 19.2 12 Noroeste 21 Noroeste 0 -- -- 83
2020-05-30 13:00:00 20.1 11 Norte 27 Noroeste 0 -- -- 78
2020-05-30 12:00:00 22 12 Noroeste 22 Norte 0 -- -- 68
2020-05-30 11:00:00 21 10 Noroeste 18 Oeste 0 -- -- 71
2020-05-30 10:00:00 20 9 Noroeste 16 Oeste 0 -- -- 73
2020-05-30 09:00:00 19.1 7 Oeste 14 Oeste 0 -- -- 77
2020-05-30 08:00:00 18.5 5 Noroeste 13 Noroeste 0 -- -- 77
2020-05-30 07:00:00 18.3 5 Noroeste 15 Oeste 0 -- -- 75
2020-05-30 06:00:00 18.2 7 Noroeste 18 Noroeste 0 -- -- 77
2020-05-30 05:00:00 18.1 11 Noroeste 20 Noroeste 0 -- -- 81
2020-05-30 04:00:00 18.4 8 Noroeste 17 Noroeste 0 -- -- 83
2020-05-30 03:00:00 18.6 8 Noroeste 20 Oeste 0 -- -- 79
2020-05-30 02:00:00 18.6 13 Noroeste 21 Noroeste 0 -- -- 78
2020-05-30 01:00:00 18.6 14 Noroeste 30 Oeste 0 -- -- 83
2020-05-30 00:00:00 18.7 12 Noroeste 28 Noroeste 0 -- -- 77
2020-05-29 23:00:00 18.8 13 Noroeste 27 Noroeste 0 -- -- 80
2020-05-29 22:00:00 18.9 14 Noroeste 25 Norte 0 -- -- 79
2020-05-29 21:00:00 19.1 13 Noroeste 31 Noroeste 0 -- -- 78
2020-05-29 20:00:00 19.1 17 Noroeste 33 Noroeste 0 -- -- 77
2020-05-29 19:00:00 19.7 18 Noroeste 31 Noroeste 0 -- -- 75
2020-05-29 18:00:00 20.3 17 Noroeste 36 Noroeste 0 -- -- 73
2020-05-29 17:00:00 21.3 17 Noroeste 34 Noroeste 0 -- -- 70
2020-05-29 16:00:00 21.3 19 Noroeste 31 Noroeste 0 -- -- 70
2020-05-29 15:00:00 21.4 21 Noroeste 37 Noroeste 0 -- -- 70
2020-05-29 14:00:00 20.9 21 Noroeste 32 Noroeste 0 -- -- 74
2020-05-29 13:00:00 19.9 18 Noroeste 33 Oeste 0 -- -- 80
2020-05-29 12:00:00 19.7 13 Noroeste 30 Oeste 0 -- -- 80
2020-05-29 11:00:00 18.8 13 Noroeste 27 Noroeste 0 -- -- 82
2020-05-29 10:00:00 18.4 16 Noroeste 27 Noroeste 0 -- -- 86
2020-05-29 09:00:00 17.7 13 Noroeste 27 Noroeste 0 -- -- 87
2020-05-29 08:00:00 17.4 12 Noroeste 21 Noroeste 0 -- -- 88
2020-05-29 07:00:00 17.3 11 Noroeste 23 Noroeste 0 -- -- 88
2020-05-29 06:00:00 17.3 14 Noroeste 27 Oeste 0 -- -- 88
2020-05-29 05:00:00 17.1 12 Noroeste 25 Noroeste 0 -- -- 88
2020-05-29 04:00:00 17.1 12 Noroeste 23 Oeste 0 -- -- 88
2020-05-29 03:00:00 17.1 12 Noroeste 22 Oeste 0 -- -- 88
2020-05-29 02:00:00 17.1 14 Noroeste 22 Noroeste 0 -- -- 88
2020-05-29 01:00:00 17.3 14 Noroeste 28 Noroeste 0 -- -- 88
2020-05-29 00:00:00 17.4 11 Noroeste 24 Noroeste 0 -- -- 89
2020-05-28 23:00:00 17.4 12 Noroeste 27 Noroeste 0 -- -- 89
2020-05-28 22:00:00 17.6 15 Noroeste 25 Noroeste 0 -- -- 88
2020-05-28 21:00:00 17.8 14 Noroeste 26 Noroeste 0 -- -- 87
2020-05-28 20:00:00 18.8 17 Noroeste 28 Noroeste 0 -- -- 83
2020-05-28 19:00:00 19.9 18 Noroeste 27 Norte 0 -- -- 79
2020-05-28 18:00:00 20.5 18 Noroeste 28 Noroeste 0 -- -- 76
2020-05-28 17:00:00 21.1 17 Noroeste 26 Noroeste 0 -- -- 74
2020-05-28 16:00:00 21.9 17 Noroeste 28 Noroeste 0 -- -- 70
2020-05-28 15:00:00 22.4 13 Noroeste 22 Noroeste 0 -- -- 66
2020-05-28 14:00:00 22.3 15 Noroeste 24 Noroeste 0 -- -- 67
2020-05-28 13:00:00 22.5 11 Noroeste 21 Norte 0 -- -- 65
2020-05-28 12:00:00 22.5 8 Noroeste 17 Norte 0 -- -- 67
2020-05-28 11:00:00 21.2 9 Noroeste 24 Noroeste 0 -- -- 73
2020-05-28 10:00:00 19.5 12 Noroeste 21 Noroeste 0 -- -- 83
2020-05-28 09:00:00 17.8 9 Noroeste 19 Noroeste 0 -- -- 90
2020-05-28 08:00:00 16.8 8 Oeste 14 Oeste 0 -- -- 95
2020-05-28 07:00:00 16.1 6 Oeste 13 Oeste 0 -- -- 95
2020-05-28 06:00:00 16 5 Oeste 10 Oeste 0 -- -- 94
2020-05-28 05:00:00 16.2 5 Oeste 16 Oeste 0 -- -- 93
2020-05-28 04:00:00 16.7 9 Oeste 23 Oeste 0 -- -- 93
2020-05-28 03:00:00 16.7 8 Oeste 22 Oeste 0 -- -- 94
2020-05-28 02:00:00 17 9 Noroeste 19 Oeste 0 -- -- 94
2020-05-28 01:00:00 17.2 10 Noroeste 22 Oeste 0 -- -- 93
2020-05-28 00:00:00 17.5 10 Noroeste 23 Noroeste 0 -- -- 92
2020-05-27 23:00:00 17.8 10 Noroeste 23 Noroeste 0 -- -- 91
2020-05-27 22:00:00 18.2 10 Noroeste 23 Noroeste 0 -- -- 90
2020-05-27 21:00:00 19 9 Noroeste 18 Noroeste 0 -- -- 88
2020-05-27 20:00:00 20.7 8 Noroeste 20 Noroeste 0 -- -- 80
2020-05-27 19:00:00 22.1 11 Noroeste 21 Oeste 0 -- -- 74
2020-05-27 18:00:00 24 11 Noroeste 18 Noroeste 0 -- -- 64
2020-05-27 17:00:00 25.7 5 Norte 12 Nordeste 0 -- -- 55
2020-05-27 16:00:00 23.8 6 Norte 16 Nordeste 0 -- -- 64
2020-05-27 15:00:00 23.4 6 Norte 15 Este 0 -- -- 68
2020-05-27 14:00:00 22.3 7 Nordeste 16 Nordeste 0 -- -- 70
2020-05-27 13:00:00 22.7 8 Nordeste 16 Nordeste 0 -- -- 67
2020-05-27 12:00:00 21 6 Norte 18 Noroeste 0 -- -- 73
2020-05-27 11:00:00 19.6 8 Noroeste 17 Noroeste 0 -- -- 81
2020-05-27 10:00:00 18.2 12 Noroeste 19 Noroeste 0 -- -- 87
2020-05-27 09:00:00 17.1 10 Noroeste 16 Oeste 0 -- -- 93
2020-05-27 08:00:00 16.1 8 Noroeste 18 Oeste 0 -- -- 96
2020-05-27 07:00:00 15.8 8 Oeste 17 Oeste 0 -- -- 96
2020-05-27 06:00:00 15.9 10 Oeste 22 Noroeste 0 -- -- 95
2020-05-27 05:00:00 16.3 11 Noroeste 19 Oeste 0 -- -- 95
2020-05-27 04:00:00 16.6 10 Noroeste 19 Noroeste 0 -- -- 95
2020-05-27 03:00:00 16.9 11 Noroeste 21 Oeste 0 -- -- 95
2020-05-27 02:00:00 17.1 10 Noroeste 18 Oeste 0 -- -- 95
2020-05-27 01:00:00 17.5 10 Oeste 20 Oeste 0 -- -- 93
2020-05-27 00:00:00 17.8 12 Oeste 22 Noroeste 0 -- -- 92
2020-05-26 23:00:00 18 11 Noroeste 22 Oeste 0 -- -- 91
2020-05-26 22:00:00 18.3 12 Noroeste 21 Noroeste 0 -- -- 91
2020-05-26 21:00:00 19 8 Noroeste 21 Oeste 0 -- -- 88
2020-05-26 20:00:00 19.9 10 Noroeste 23 Noroeste 0 -- -- 84
2020-05-26 19:00:00 20.8 15 Noroeste 28 Noroeste 0 -- -- 82
2020-05-26 18:00:00 21.8 14 Noroeste 23 Noroeste 0 -- -- 77
2020-05-26 17:00:00 23 13 Noroeste 20 Noroeste 0 -- -- 73
2020-05-26 16:00:00 23.4 12 Noroeste 21 Noroeste 0 -- -- 71
2020-05-26 15:00:00 23.7 12 Noroeste 19 Noroeste 0 -- -- 71
2020-05-26 14:00:00 23.9 11 Noroeste 20 Noroeste 0 -- -- 70
2020-05-26 13:00:00 23.8 8 Noroeste 17 Norte 0 -- -- 70
2020-05-26 12:00:00 23.4 6 Noroeste 13 Norte 0 -- -- 71
2020-05-26 11:00:00 21.7 6 Noroeste 14 Noroeste 0 -- -- 78
2020-05-26 10:00:00 20.1 7 Noroeste 17 Noroeste 0 -- -- 84
2020-05-26 09:00:00 18.2 10 Noroeste 17 Noroeste 0 -- -- 92
2020-05-26 08:00:00 17 9 Oeste 20 Oeste 0 -- -- 96
2020-05-26 07:00:00 16.8 8 Oeste 17 Oeste 0 -- -- 97
2020-05-26 06:00:00 16.6 10 Oeste 18 Noroeste 0 -- -- 97
2020-05-26 05:00:00 16.6 13 Oeste 23 Oeste 0 -- -- 96
2020-05-26 04:00:00 17 12 Oeste 22 Oeste 0 -- -- 96
2020-05-26 03:00:00 17 15 Oeste 28 Oeste 0 -- -- 95
2020-05-26 02:00:00 17.5 13 Oeste 20 Oeste 0 -- -- 94
2020-05-26 01:00:00 17.9 10 Oeste 16 Oeste 0 -- -- 90
2020-05-26 00:00:00 18.3 12 Oeste 15 Oeste 0 -- -- 89
2020-05-25 23:00:00 18.8 10 Oeste 17 Oeste 0 -- -- 86
2020-05-25 22:00:00 19.3 11 Oeste 17 Oeste 0 -- -- 86
2020-05-25 21:00:00 20.4 9 Oeste 15 Oeste 0 -- -- 81
2020-05-25 20:00:00 23.7 8 Oeste 15 Oeste 0 -- -- 66
2020-05-25 19:00:00 24.1 10 Noroeste 16 Noroeste 0 -- -- 64
2020-05-25 18:00:00 24.7 9 Noroeste 17 Noroeste 0 -- -- 57
2020-05-25 17:00:00 25.7 9 Norte 16 Noroeste 0 -- -- 49
2020-05-25 16:00:00 25.4 8 Norte 14 Norte 0 -- -- 57
2020-05-25 15:00:00 23.6 8 Nordeste 16 Norte 0 -- -- 68
2020-05-25 14:00:00 23.4 9 Norte 18 Noroeste 0 -- -- 71
2020-05-25 13:00:00 23.4 6 Norte 14 Noroeste 0 -- -- 70
2020-05-25 12:00:00 22.7 6 Norte 14 Noroeste 0 -- -- 73
2020-05-25 11:00:00 21.2 7 Noroeste 15 Noroeste 0 -- -- 78
2020-05-25 10:00:00 19.2 8 Noroeste 18 Noroeste 0 -- -- 89
2020-05-25 09:00:00 17.8 9 Noroeste 18 Oeste 0 -- -- 94
2020-05-25 08:00:00 17.2 9 Oeste 15 Oeste 0 -- -- 96
2020-05-25 07:00:00 16.7 7 Oeste 17 Noroeste 0 -- -- 95
2020-05-25 06:00:00 16.8 11 Oeste 19 Oeste 0 -- -- 95
2020-05-25 05:00:00 17.3 11 Oeste 23 Oeste 0 -- -- 95
2020-05-25 04:00:00 17.3 12 Oeste 20 Oeste 0 -- -- 96
2020-05-25 03:00:00 17.3 12 Noroeste 21 Oeste 0 -- -- 96
2020-05-25 02:00:00 17.3 14 Oeste 22 Oeste 0 -- -- 95
2020-05-25 01:00:00 17.8 14 Oeste 19 Oeste 0 -- -- 94
2020-05-25 00:00:00 18.2 13 Oeste 17 Oeste 0 -- -- 93
2020-05-24 23:00:00 18.4 11 Oeste 18 Oeste 0 -- -- 93
2020-05-24 22:00:00 19 11 Oeste 18 Oeste 0 -- -- 91
2020-05-24 21:00:00 20.9 8 Oeste 21 Oeste 0 -- -- 82
2020-05-24 20:00:00 21.7 11 Noroeste 20 Oeste 0 -- -- 80
2020-05-24 19:00:00 23.9 8 Noroeste 17 Noroeste 0 -- -- 70
2020-05-24 18:00:00 24.7 9 Noroeste 17 Oeste 0 -- -- 66
2020-05-24 17:00:00 26.1 8 Norte 14 Nordeste 0 -- -- 60
2020-05-24 16:00:00 26.2 7 Noroeste 15 Norte 0 -- -- 56
2020-05-24 15:00:00 26.6 6 Nordeste 14 Norte 0 -- -- 56
2020-05-24 14:00:00 26.9 5 Norte 14 Este 0 -- -- 46
2020-05-24 13:00:00 25.4 6 Este 15 Norte 0 -- -- 55
2020-05-24 12:00:00 26.2 5 Norte 11 Norte 0 -- -- 48
2020-05-24 11:00:00 25.4 7 Norte 12 Norte 0 -- -- 54
2020-05-24 10:00:00 24.5 6 Noroeste 11 Noroeste 0 -- -- 46
2020-05-24 09:00:00 22.4 4 Oeste 15 Oeste 0 -- -- 49
2020-05-24 08:00:00 21.3 8 Oeste 16 Sudoeste 0 -- -- 44
2020-05-24 07:00:00 20.1 5 Oeste 14 Oeste 0 -- -- 48
2020-05-24 06:00:00 20.5 3 Sudoeste 13 Sudoeste 0 -- -- 49
2020-05-24 05:00:00 20.7 5 Noroeste 12 Sudoeste 0 -- -- 50
2020-05-24 04:00:00 20.9 7 Sudoeste 14 Noroeste 0 -- -- 55
2020-05-24 03:00:00 20.3 5 Oeste 19 Norte 0 -- -- 64
2020-05-24 02:00:00 19 7 Oeste 18 Oeste 0 -- -- 76
2020-05-24 01:00:00 19.1 6 Oeste 18 Oeste 0 -- -- 80
2020-05-24 00:00:00 19.3 7 Noroeste 18 Sudoeste 0 -- -- 81
2020-05-23 23:00:00 19.6 8 Sudoeste 17 Oeste 0 -- -- 72
2020-05-23 22:00:00 18.6 8 Oeste 22 Noroeste 0 -- -- 89
2020-05-23 21:00:00 18.8 11 Noroeste 22 Noroeste 0 -- -- 90
2020-05-23 20:00:00 19.3 12 Noroeste 22 Noroeste 0 -- -- 88
2020-05-23 19:00:00 20.3 13 Noroeste 19 Noroeste 0 -- -- 83
2020-05-23 18:00:00 21.7 11 Norte 22 Norte 0 -- -- 78
2020-05-23 17:00:00 22.3 11 Norte 19 Noroeste 0 -- -- 75
2020-05-23 16:00:00 22.9 11 Noroeste 21 Norte 0 -- -- 73
2020-05-23 15:00:00 22.9 12 Noroeste 23 Noroeste 0 -- -- 73
2020-05-23 14:00:00 23.2 13 Norte 22 Norte 0 -- -- 70
2020-05-23 13:00:00 22.8 9 Norte 19 Noroeste 0 -- -- 70
2020-05-23 12:00:00 22.3 10 Noroeste 17 Noroeste 0 -- -- 71
2020-05-23 11:00:00 21 12 Noroeste 18 Noroeste 0 -- -- 77
2020-05-23 10:00:00 20.6 8 Noroeste 15 Noroeste 0 -- -- 77
2020-05-23 09:00:00 18.4 8 Noroeste 18 Noroeste 0 -- -- 86
2020-05-23 08:00:00 17.6 10 Noroeste 23 Noroeste 0 -- -- 87
2020-05-23 07:00:00 17.5 12 Noroeste 28 Oeste 0 -- -- 87
2020-05-23 06:00:00 17.3 12 Noroeste 23 Noroeste 0 -- -- 88
2020-05-23 05:00:00 17.4 14 Noroeste 25 Noroeste 0 -- -- 90
2020-05-23 04:00:00 17.5 14 Noroeste 28 Noroeste 0 -- -- 89
2020-05-23 03:00:00 17.5 17 Noroeste 29 Oeste 0 -- -- 90
2020-05-23 02:00:00 17.6 16 Noroeste 33 Oeste 0 -- -- 90
2020-05-23 01:00:00 17.6 19 Noroeste 32 Oeste 0 -- -- 89
2020-05-23 00:00:00 17.7 19 Noroeste 35 Noroeste 0 -- -- 89
2020-05-22 23:00:00 17.9 17 Noroeste 30 Noroeste 0 -- -- 87
2020-05-22 22:00:00 18.1 16 Noroeste 30 Noroeste 0 -- -- 86
2020-05-22 21:00:00 18.3 13 Noroeste 28 Noroeste 0 -- -- 83
2020-05-22 20:00:00 19 17 Noroeste 31 Oeste 0 -- -- 79
2020-05-22 19:00:00 20.1 15 Noroeste 29 Noroeste 0 -- -- 73
2020-05-22 18:00:00 20.4 15 Noroeste 30 Noroeste 0 -- -- 73
2020-05-22 17:00:00 20.7 17 Noroeste 29 Noroeste 0 -- -- 72
2020-05-22 16:00:00 20.9 19 Noroeste 27 Noroeste 0 -- -- 69
2020-05-22 15:00:00 21.1 16 Noroeste 30 Norte 0 -- -- 69
2020-05-22 14:00:00 20.6 17 Noroeste 28 Noroeste 0 -- -- 67
2020-05-22 13:00:00 19.9 19 Noroeste 30 Noroeste 0 -- -- 69
2020-05-22 12:00:00 19.8 17 Noroeste 30 Noroeste 0 -- -- 70
2020-05-22 11:00:00 19 18 Noroeste 30 Noroeste 0 -- -- 74
2020-05-22 10:00:00 18.3 15 Noroeste 30 Noroeste 0 -- -- 77
2020-05-22 09:00:00 17.3 15 Noroeste 28 Oeste 0 -- -- 79
2020-05-22 08:00:00 16.6 13 Noroeste 26 Oeste 0 -- -- 79
2020-05-22 07:00:00 16.2 11 Noroeste 24 Noroeste 0 -- -- 82
2020-05-22 06:00:00 16.2 13 Noroeste 27 Noroeste 0 -- -- 83
2020-05-22 05:00:00 16.1 13 Noroeste 26 Noroeste 0 -- -- 82
2020-05-22 04:00:00 16.4 13 Noroeste 24 Noroeste 0 -- -- 82
2020-05-22 03:00:00 16.6 14 Noroeste 24 Noroeste 0 -- -- 80
2020-05-22 02:00:00 16.7 11 Noroeste 24 Oeste 0 -- -- 80
2020-05-22 01:00:00 16.8 11 Noroeste 25 Oeste 0 -- -- 79
2020-05-22 00:00:00 16.8 13 Noroeste 26 Noroeste 0 -- -- 78
2020-05-21 23:00:00 16.9 15 Noroeste 24 Noroeste 0 -- -- 79
2020-05-21 22:00:00 17 15 Noroeste 27 Norte 0 -- -- 77
2020-05-21 21:00:00 17.2 16 Noroeste 29 Noroeste 0 -- -- 76
2020-05-21 20:00:00 17.6 16 Noroeste 31 Noroeste 0 -- -- 75
2020-05-21 19:00:00 18.1 19 Noroeste 31 Noroeste 0 -- -- 74
2020-05-21 18:00:00 18.5 19 Noroeste 32 Noroeste 0 -- -- 72
2020-05-21 17:00:00 19 18 Noroeste 32 Noroeste 0 -- -- 68
2020-05-21 16:00:00 20.1 15 Noroeste 37 Noroeste 0 -- -- 67
2020-05-21 15:00:00 20.4 18 Noroeste 33 Noroeste 0 -- -- 66
2020-05-21 14:00:00 20.3 16 Noroeste 30 Noroeste 0 -- -- 65
2020-05-21 13:00:00 19.6 15 Noroeste 27 Noroeste 0 -- -- 68
2020-05-21 12:00:00 19.7 13 Norte 28 Noroeste 0 -- -- 67
2020-05-21 11:00:00 18.3 18 Noroeste 30 Noroeste 0 -- -- 74
2020-05-21 10:00:00 17.8 14 Noroeste 25 Noroeste 0 -- -- 74
2020-05-21 09:00:00 16.9 12 Noroeste 22 Norte 0 -- -- 79
2020-05-21 08:00:00 16.5 9 Noroeste 19 Oeste 0 -- -- 82
2020-05-21 07:00:00 16.3 9 Noroeste 18 Noroeste 0 -- -- 84
2020-05-21 06:00:00 16.3 11 Noroeste 19 Noroeste 0 -- -- 85
2020-05-21 05:00:00 16.4 10 Noroeste 20 Oeste 0 -- -- 86
2020-05-21 04:00:00 16.4 9 Noroeste 21 Oeste 0 -- -- 87
2020-05-21 03:00:00 16.5 9 Oeste 23 Oeste 0 -- -- 87
2020-05-21 02:00:00 16.4 8 Noroeste 15 Oeste 0 -- -- 81
2020-05-21 01:00:00 16.6 5 Oeste 15 Oeste 0 -- -- 72
2020-05-21 00:00:00 17 8 Oeste 19 Noroeste 0 -- -- 81
2020-05-20 23:00:00 17.4 9 Noroeste 20 Oeste 0 -- -- 84
2020-05-20 22:00:00 17.7 11 Noroeste 21 Noroeste 0 -- -- 85
2020-05-20 21:00:00 18.1 10 Noroeste 24 Noroeste 0 -- -- 83
2020-05-20 20:00:00 18.9 12 Noroeste 21 Norte 0 -- -- 78
2020-05-20 19:00:00 20.2 12 Noroeste 23 Noroeste 0 -- -- 74
2020-05-20 18:00:00 20.8 14 Noroeste 23 Noroeste 0 -- -- 71
2020-05-20 17:00:00 21.6 13 Noroeste 26 Noroeste 0 -- -- 69
2020-05-20 16:00:00 21.9 11 Noroeste 25 Noroeste 0 -- -- 66
2020-05-20 15:00:00 21.5 13 Noroeste 31 Noroeste 0 -- -- 70
2020-05-20 14:00:00 21.8 12 Noroeste 27 Noroeste 0 -- -- 67
2020-05-20 13:00:00 21.4 14 Noroeste 29 Norte 0 -- -- 71
2020-05-20 12:00:00 20.7 13 Noroeste 26 Noroeste 0 -- -- 70
2020-05-20 11:00:00 19.8 15 Noroeste 25 Noroeste 0 -- -- 75
2020-05-20 10:00:00 19 13 Noroeste 26 Noroeste 0 -- -- 80
2020-05-20 09:00:00 17.7 14 Noroeste 27 Oeste 0 -- -- 85
2020-05-20 08:00:00 16.9 14 Oeste 27 Oeste 0 -- -- 89
2020-05-20 07:00:00 16.8 14 Noroeste 24 Noroeste 0 -- -- 91
2020-05-20 06:00:00 16.9 13 Noroeste 25 Oeste 0 -- -- 91
2020-05-20 05:00:00 17 14 Noroeste 28 Noroeste 0 -- -- 92
2020-05-20 04:00:00 17.4 13 Noroeste 27 Oeste 0 -- -- 91
2020-05-20 03:00:00 17.6 15 Noroeste 30 Noroeste 0 -- -- 90
2020-05-20 02:00:00 17.6 14 Noroeste 28 Noroeste 0 -- -- 86
2020-05-20 01:00:00 17.8 14 Noroeste 25 Noroeste 0 -- -- 84
2020-05-20 00:00:00 18.1 14 Noroeste 26 Noroeste 0 -- -- 79
2020-05-19 23:00:00 18.1 13 Noroeste 27 Oeste 0 -- -- 78
2020-05-19 22:00:00 18.2 14 Noroeste 30 Noroeste 0 -- -- 80
2020-05-19 21:00:00 18.2 17 Noroeste 32 Noroeste 0 -- -- 79
2020-05-19 20:00:00 18.5 15 Noroeste 31 Noroeste 0 -- -- 79
2020-05-19 19:00:00 18.9 17 Noroeste 37 Noroeste 0 -- -- 77
2020-05-19 18:00:00 19.7 18 Noroeste 35 Noroeste 0 -- -- 78
2020-05-19 17:00:00 19.6 21 Noroeste 32 Noroeste 0 -- -- 76
2020-05-19 16:00:00 20.3 18 Noroeste 29 Noroeste 0 -- -- 71
2020-05-19 15:00:00 20 14 Norte 27 Noroeste 0 -- -- 75
2020-05-19 14:00:00 20 15 Norte 27 Noroeste 0 -- -- 78
2020-05-19 13:00:00 20 15 Noroeste 31 Norte 0 -- -- 76
2020-05-19 12:00:00 20.4 12 Norte 27 Noroeste 0 -- -- 75
2020-05-19 11:00:00 19.1 17 Noroeste 26 Noroeste 0 -- -- 78
2020-05-19 10:00:00 18.2 14 Noroeste 26 Noroeste 0 -- -- 85
2020-05-19 09:00:00 17.7 13 Noroeste 25 Noroeste 0 -- -- 91
2020-05-19 08:00:00 17.4 15 Noroeste 26 Noroeste 0 -- -- 92
2020-05-19 07:00:00 17.3 13 Noroeste 27 Noroeste 0 -- -- 92
2020-05-19 06:00:00 17.1 14 Noroeste 27 Noroeste 0 -- -- 93
2020-05-19 05:00:00 17.1 16 Noroeste 27 Noroeste 0 -- -- 93
2020-05-19 04:00:00 17.2 13 Noroeste 21 Oeste 0 -- -- 93
2020-05-19 03:00:00 17.1 11 Noroeste 20 Noroeste 0 -- -- 92
2020-05-19 02:00:00 17.5 12 Noroeste 23 Noroeste 0 -- -- 91
2020-05-19 01:00:00 17.5 15 Noroeste 27 Noroeste 0 -- -- 91
2020-05-19 00:00:00 17.6 16 Noroeste 26 Noroeste 0 -- -- 91
2020-05-18 23:00:00 17.6 13 Noroeste 27 Noroeste 0 -- -- 90
2020-05-18 22:00:00 17.6 13 Noroeste 30 Noroeste 0 -- -- 89
2020-05-18 21:00:00 17.6 13 Noroeste 27 Noroeste 0 -- -- 88
2020-05-18 20:00:00 17.8 14 Noroeste 28 Noroeste 0 -- -- 86
2020-05-18 19:00:00 18 18 Noroeste 27 Noroeste 0 -- -- 84
2020-05-18 18:00:00 18.3 14 Noroeste 31 Noroeste 0 -- -- 82
2020-05-18 17:00:00 18.9 17 Noroeste 29 Noroeste 0 -- -- 74
2020-05-18 16:00:00 18.8 16 Noroeste 27 Norte 0 -- -- 78
2020-05-18 15:00:00 18.9 13 Noroeste 24 Norte 0 -- -- 76
2020-05-18 14:00:00 20.2 12 Noroeste 22 Noroeste 0 -- -- 68
2020-05-18 13:00:00 19.3 12 Noroeste 23 Noroeste 0 -- -- 71
2020-05-18 12:00:00 18.7 12 Noroeste 24 Noroeste 0 -- -- 74
2020-05-18 11:00:00 18.7 12 Noroeste 26 Noroeste 0 -- -- 72
2020-05-18 10:00:00 17.5 12 Norte 22 Norte 0 -- -- 79
2020-05-18 09:00:00 17.1 10 Norte 18 Norte 0 -- -- 83
2020-05-18 08:00:00 16.5 6 Noroeste 16 Noroeste 0 -- -- 85
2020-05-18 07:00:00 15.7 5 Oeste 13 Noroeste 0 -- -- 85
2020-05-18 06:00:00 15.9 6 Noroeste 15 Norte 0 -- -- 85
2020-05-18 05:00:00 15.9 5 Noroeste 12 Noroeste 0 -- -- 85
2020-05-18 04:00:00 16.2 4 Noroeste 11 Noroeste 0 -- -- 84
2020-05-18 03:00:00 16.5 3 Norte 16 Nordeste 0 -- -- 85
2020-05-18 02:00:00 16.9 8 Nordeste 19 Nordeste 0 -- -- 84
2020-05-18 01:00:00 16.8 6 Noroeste 17 Noroeste 0 -- -- 84
2020-05-18 00:00:00 16.7 6 Norte 16 Noroeste 0 -- -- 84
2020-05-17 23:00:00 16.6 8 Noroeste 17 Norte 0 -- -- 83
2020-05-17 22:00:00 16.8 8 Norte 19 Norte 0 -- -- 79
2020-05-17 21:00:00 17.1 9 Noroeste 22 Noroeste 0 -- -- 76
2020-05-17 20:00:00 17.7 12 Noroeste 23 Noroeste 0 -- -- 69
2020-05-17 19:00:00 18.1 14 Noroeste 27 Noroeste 0 -- -- 70
2020-05-17 18:00:00 18.6 15 Noroeste 27 Norte 0 -- -- 68
2020-05-17 17:00:00 18.8 11 Norte 24 Nordeste 0 -- -- 69
2020-05-17 16:00:00 18 14 Norte 24 Norte 0 -- -- 72
2020-05-17 15:00:00 18 10 Norte 21 Noroeste 0 -- -- 73
2020-05-17 14:00:00 17.4 8 Oeste 19 Oeste 0 -- -- 81
2020-05-17 13:00:00 18 11 Noroeste 22 Noroeste 0 -- -- 76
2020-05-17 12:00:00 18 14 Noroeste 25 Norte 0 -- -- 72
2020-05-17 11:00:00 17.7 13 Norte 25 Norte 0 -- -- 67
2020-05-17 10:00:00 17.7 12 Norte 21 Norte 0 -- -- 71
2020-05-17 09:00:00 17.2 8 Norte 16 Nordeste 0 -- -- 74
2020-05-17 08:00:00 16.9 8 Norte 23 Norte 0 -- -- 75
2020-05-17 07:00:00 16.5 10 Nordeste 22 Nordeste 0 -- -- 81
2020-05-17 06:00:00 16.4 6 Norte 18 Nordeste 0 -- -- 82
2020-05-17 05:00:00 16.6 8 Norte 21 Norte 0 -- -- 81
2020-05-17 04:00:00 16.5 7 Norte 16 Noroeste 0 -- -- 79
2020-05-17 03:00:00 16.4 6 Norte 19 Noroeste 0 -- -- 79
2020-05-17 02:00:00 16.5 11 Noroeste 22 Noroeste 0 -- -- 76
2020-05-17 01:00:00 16.7 14 Noroeste 24 Noroeste 0 -- -- 77
2020-05-17 00:00:00 16.8 13 Noroeste 27 Noroeste 0 -- -- 77
2020-05-16 23:00:00 16.9 12 Norte 28 Noroeste 0 -- -- 75
2020-05-16 22:00:00 16.7 14 Noroeste 30 Norte 0 -- -- 73
2020-05-16 21:00:00 16.9 16 Norte 28 Norte 0 -- -- 73
2020-05-16 20:00:00 17.2 13 Noroeste 28 Noroeste 0 -- -- 68
2020-05-16 19:00:00 17.9 17 Noroeste 31 Noroeste 0 -- -- 63
2020-05-16 18:00:00 18.8 15 Noroeste 30 Noroeste 0 -- -- 55
2020-05-16 17:00:00 18.4 18 Noroeste 29 Noroeste 0 -- -- 58
2020-05-16 16:00:00 19.7 17 Noroeste 35 Norte 0 -- -- 56
2020-05-16 15:00:00 20.3 15 Norte 30 Norte 0 -- -- 50
2020-05-16 14:00:00 20.2 16 Norte 35 Norte 0 -- -- 49
2020-05-16 13:00:00 19.3 19 Norte 33 Noroeste 0 -- -- 51
2020-05-16 12:00:00 19.2 16 Norte 36 Noroeste 0 -- -- 57
2020-05-16 11:00:00 18.8 17 Noroeste 37 Noroeste 0 -- -- 57
2020-05-16 10:00:00 18.2 19 Noroeste 33 Noroeste 0 -- -- 57
2020-05-16 09:00:00 17.1 15 Noroeste 27 Noroeste 0 -- -- 63
2020-05-16 08:00:00 16.6 16 Noroeste 33 Noroeste 0 -- -- 71
2020-05-16 07:00:00 16.2 14 Noroeste 23 Noroeste 0 -- -- 80
2020-05-16 06:00:00 16 10 Noroeste 29 Noroeste 0 -- -- 79
2020-05-16 05:00:00 16.1 17 Noroeste 31 Noroeste 0 -- -- 78
2020-05-16 04:00:00 16.3 14 Noroeste 26 Noroeste 0 -- -- 79
2020-05-16 03:00:00 16.6 15 Noroeste 28 Norte 0 -- -- 78
2020-05-16 02:00:00 16.6 14 Noroeste 29 Noroeste 0 -- -- 78
2020-05-16 01:00:00 16.8 15 Noroeste 29 Noroeste 0 -- -- 77
2020-05-16 00:00:00 16.8 15 Noroeste 31 Noroeste 0 -- -- 77
2020-05-15 23:00:00 16.8 17 Noroeste 32 Noroeste 0 -- -- 75
2020-05-15 22:00:00 17 18 Noroeste 32 Noroeste 0 -- -- 76
2020-05-15 21:00:00 17.1 18 Noroeste 30 Noroeste 0 -- -- 77
2020-05-15 20:00:00 17.4 17 Noroeste 34 Noroeste 0 -- -- 73
2020-05-15 19:00:00 18.2 17 Noroeste 36 Oeste 0 -- -- 72
2020-05-15 18:00:00 18.2 20 Noroeste 38 Oeste 0 -- -- 71
2020-05-15 17:00:00 18.3 19 Noroeste 36 Noroeste 0 -- -- 73
2020-05-15 16:00:00 19 21 Noroeste 45 Noroeste 0 -- -- 65
2020-05-15 15:00:00 19.3 19 Noroeste 41 Noroeste 0 -- -- 67
2020-05-15 14:00:00 19.4 19 Noroeste 36 Noroeste 0 -- -- 68
2020-05-15 13:00:00 17.5 23 Noroeste 35 Norte 0 -- -- 79
2020-05-15 12:00:00 18.5 21 Noroeste 36 Noroeste 0.2 -- -- 73
2020-05-15 11:00:00 17.8 24 Noroeste 44 Noroeste 0 -- -- 82
2020-05-15 10:00:00 16.5 20 Noroeste 44 Noroeste 0.6 -- -- 87
2020-05-15 09:00:00 17.2 25 Noroeste 42 Noroeste 0 -- -- 78
2020-05-15 08:00:00 16.2 22 Noroeste 42 Oeste 0 -- -- 75
2020-05-15 07:00:00 15.9 20 Noroeste 37 Noroeste 0 -- -- 71
2020-05-15 06:00:00 15.8 20 Oeste 40 Oeste 0 -- -- 68
2020-05-15 05:00:00 15.8 18 Noroeste 32 Noroeste 0 -- -- 70
2020-05-15 04:00:00 15.9 18 Noroeste 37 Noroeste 0 -- -- 64
2020-05-15 03:00:00 16 17 Noroeste 41 Noroeste 0 -- -- 65
2020-05-15 02:00:00 16.4 21 Noroeste 41 Noroeste 0 -- -- 64
2020-05-15 01:00:00 16.6 21 Noroeste 43 Noroeste 0 -- -- 67
2020-05-15 00:00:00 16.7 23 Noroeste 40 Noroeste 0 -- -- 64
2020-05-14 23:00:00 16.8 22 Noroeste 43 Noroeste 0 -- -- 69
2020-05-14 22:00:00 16.9 20 Noroeste 40 Noroeste 0 -- -- 70
2020-05-14 21:00:00 17 22 Noroeste 45 Noroeste 0 -- -- 69
2020-05-14 20:00:00 17.8 23 Noroeste 47 Oeste 0 -- -- 65
2020-05-14 19:00:00 18.1 26 Noroeste 47 Oeste 0 -- -- 64
2020-05-14 18:00:00 18.3 21 Noroeste 44 Norte 0 -- -- 63
2020-05-14 17:00:00 18.5 21 Noroeste 44 Noroeste 0 -- -- 67
2020-05-14 16:00:00 19.3 26 Noroeste 50 Oeste 0 -- -- 65
2020-05-14 15:00:00 20.3 27 Noroeste 48 Noroeste 0 -- -- 61
2020-05-14 14:00:00 20.8 23 Noroeste 43 Noroeste 0 -- -- 62
2020-05-14 13:00:00 20.3 22 Noroeste 40 Oeste 0 -- -- 62
2020-05-14 12:00:00 20.5 21 Noroeste 46 Noroeste 0 -- -- 53
2020-05-14 11:00:00 19.8 21 Noroeste 48 Noroeste 0 -- -- 59
2020-05-14 10:00:00 18.5 24 Noroeste 44 Noroeste 0 -- -- 62
2020-05-14 09:00:00 17.7 18 Oeste 37 Oeste 0 -- -- 71
2020-05-14 08:00:00 17 14 Noroeste 31 Oeste 0 -- -- 68
2020-05-14 07:00:00 16.9 15 Oeste 42 Oeste 0 -- -- 59
2020-05-14 06:00:00 16.9 16 Oeste 35 Oeste 0 -- -- 54
2020-05-14 05:00:00 16.5 15 Oeste 30 Oeste 0 -- -- 55
2020-05-14 04:00:00 16.2 15 Oeste 33 Oeste 0 -- -- 65
2020-05-14 03:00:00 16.5 19 Noroeste 36 Noroeste 0 -- -- 68
2020-05-14 02:00:00 16.4 18 Oeste 36 Oeste 0 -- -- 71
2020-05-14 01:00:00 16.3 15 Oeste 35 Oeste 0 -- -- 66
2020-05-14 00:00:00 16.8 19 Noroeste 36 Oeste 0 -- -- 64
2020-05-13 23:00:00 17.2 17 Noroeste 37 Noroeste 0 -- -- 63
2020-05-13 22:00:00 17.1 18 Noroeste 33 Oeste 0 -- -- 66
2020-05-13 21:00:00 17.4 15 Noroeste 29 Noroeste 0 -- -- 67
2020-05-13 20:00:00 17.7 17 Noroeste 31 Noroeste 0 -- -- 67
2020-05-13 19:00:00 18 15 Noroeste 32 Oeste 0 -- -- 74
2020-05-13 18:00:00 18.4 20 Noroeste 33 Noroeste 0 -- -- 72
2020-05-13 17:00:00 18.2 21 Noroeste 37 Noroeste 0 -- -- 78
2020-05-13 16:00:00 19.8 19 Noroeste 49 Noroeste 0 -- -- 73
2020-05-13 15:00:00 21.7 24 Noroeste 39 Norte 0 -- -- 65
2020-05-13 14:00:00 22.3 19 Noroeste 36 Oeste 0 -- -- 55
2020-05-13 13:00:00 23.2 21 Noroeste 42 Noroeste 0 -- -- 41
2020-05-13 12:00:00 22 19 Noroeste 41 Noroeste 0 -- -- 48
2020-05-13 11:00:00 19.8 21 Noroeste 41 Oeste 0 -- -- 65
2020-05-13 10:00:00 18.7 18 Noroeste 37 Noroeste 0 -- -- 75
2020-05-13 09:00:00 18.2 15 Noroeste 33 Noroeste 0 -- -- 77
2020-05-13 08:00:00 17.3 13 Noroeste 27 Noroeste 0 -- -- 83
2020-05-13 07:00:00 17.1 13 Oeste 31 Noroeste 0 -- -- 73
2020-05-13 06:00:00 17.2 16 Oeste 34 Noroeste 0 -- -- 78
2020-05-13 05:00:00 17.3 16 Noroeste 37 Oeste 0 -- -- 82
2020-05-13 04:00:00 17.3 19 Noroeste 37 Noroeste 0 -- -- 83
2020-05-13 03:00:00 17.4 15 Noroeste 35 Oeste 0 -- -- 79
2020-05-13 02:00:00 17.3 15 Noroeste 38 Noroeste 0 -- -- 81
2020-05-13 01:00:00 17.5 18 Noroeste 38 Noroeste 0 -- -- 82
2020-05-13 00:00:00 17.6 23 Noroeste 45 Noroeste 0 -- -- 81
2020-05-12 23:00:00 17.7 22 Noroeste 43 Oeste 0 -- -- 82
2020-05-12 22:00:00 17.8 25 Noroeste 49 Noroeste 0 -- -- 82
2020-05-12 21:00:00 17.7 22 Noroeste 41 Noroeste 0 -- -- 79
2020-05-12 20:00:00 18.6 21 Noroeste 43 Oeste 0 -- -- 70
2020-05-12 19:00:00 19.1 24 Noroeste 41 Oeste 0 -- -- 70
2020-05-12 18:00:00 20.2 22 Noroeste 40 Noroeste 0 -- -- 64
2020-05-12 17:00:00 20.4 22 Noroeste 39 Noroeste 0 -- -- 63
2020-05-12 16:00:00 21.2 23 Noroeste 45 Noroeste 0 -- -- 59
2020-05-12 15:00:00 21 21 Noroeste 41 Oeste 0 -- -- 55
2020-05-12 14:00:00 20.3 19 Noroeste 37 Oeste 0 -- -- 60
2020-05-12 13:00:00 20.1 19 Noroeste 39 Noroeste 0 -- -- 63
2020-05-12 12:00:00 19.1 22 Noroeste 41 Noroeste 0 -- -- 64
2020-05-12 11:00:00 17.9 23 Noroeste 39 Noroeste 0.2 -- -- 72
2020-05-12 10:00:00 17.2 14 Noroeste 35 Oeste 0.4 -- -- 81
2020-05-12 09:00:00 17.1 14 Noroeste 39 Noroeste 0 -- -- 84
2020-05-12 08:00:00 16.7 11 Oeste 20 Oeste 0 -- -- 75
2020-05-12 07:00:00 15.8 8 Oeste 18 Sudoeste 0 -- -- 72
2020-05-12 06:00:00 15.9 6 Oeste 19 Oeste 0 -- -- 73
2020-05-12 05:00:00 16.7 9 Noroeste 22 Noroeste 0 -- -- 71
2020-05-12 04:00:00 16.9 13 Noroeste 34 Oeste 0 -- -- 72
2020-05-12 03:00:00 17.1 16 Noroeste 31 Noroeste 0 -- -- 74
2020-05-12 02:00:00 17.1 16 Noroeste 36 Noroeste 0 -- -- 74
2020-05-12 01:00:00 17 22 Noroeste 44 Noroeste 0 -- -- 73
2020-05-12 00:00:00 17.3 20 Noroeste 39 Noroeste 0 -- -- 78
2020-05-11 23:00:00 17.7 19 Noroeste 41 Norte 0.2 -- -- 81
2020-05-11 22:00:00 17.9 22 Noroeste 37 Noroeste 0.2 -- -- 90
2020-05-11 21:00:00 18.7 19 Noroeste 49 Noroeste 0 -- -- 85
2020-05-11 20:00:00 19.6 19 Noroeste 33 Noroeste 0 -- -- 77
2020-05-11 19:00:00 20.9 18 Noroeste 34 Norte 0 -- -- 71
2020-05-11 18:00:00 21.9 17 Noroeste -- -- 0 -- -- 64
2020-05-11 17:00:00 21.7 25 Noroeste 42 Noroeste 0 -- -- 63
2020-05-11 16:00:00 22.9 23 Noroeste 40 Oeste 0 -- -- 54
2020-05-11 15:00:00 23 17 Noroeste 32 Noroeste 0 -- -- 56
2020-05-11 14:00:00 22.5 20 Noroeste 35 Noroeste 0 -- -- 58
2020-05-11 13:00:00 22.2 19 Noroeste 39 Noroeste 0 -- -- 59
2020-05-11 12:00:00 21.4 18 Noroeste 36 Noroeste 0 -- -- 65
2020-05-11 11:00:00 20.8 20 Noroeste 35 Noroeste 0 -- -- 63
2020-05-11 10:00:00 19.5 17 Noroeste 32 Noroeste 0 -- -- 69
2020-05-11 09:00:00 17.8 14 Noroeste 30 Noroeste 0 -- -- 86
2020-05-11 08:00:00 17.9 17 Noroeste 31 Noroeste 0 -- -- 86
2020-05-11 07:00:00 18 13 Noroeste 26 Noroeste 0 -- -- 83
2020-05-11 06:00:00 18 16 Noroeste 28 Noroeste 0 -- -- 80
2020-05-11 05:00:00 17.8 14 Noroeste 32 Oeste 0 -- -- 79
2020-05-11 04:00:00 17.7 16 Noroeste 33 Oeste 0 -- -- 83
2020-05-11 03:00:00 17.6 18 Noroeste 33 Oeste 0 -- -- 83
2020-05-11 02:00:00 17.7 18 Noroeste 35 Noroeste 0 -- -- 82
2020-05-11 01:00:00 17.8 17 Noroeste 32 Noroeste 0 -- -- 83
2020-05-11 00:00:00 18 17 Noroeste 36 Norte 0 -- -- 82
2020-05-10 23:00:00 18 16 Noroeste 34 Noroeste 0 -- -- 79
2020-05-10 22:00:00 17.7 20 Noroeste 37 Noroeste 0 -- -- 81
2020-05-10 21:00:00 17.8 20 Noroeste 40 Oeste 0 -- -- 81
2020-05-10 20:00:00 18.4 21 Noroeste 44 Noroeste 0 -- -- 81
2020-05-10 19:00:00 19 23 Noroeste 43 Noroeste 0 -- -- 73
2020-05-10 18:00:00 19.3 25 Noroeste 51 Noroeste 0 -- -- 76
2020-05-10 17:00:00 20.6 24 Noroeste 45 Noroeste 0 -- -- 73
2020-05-10 16:00:00 21.2 24 Noroeste 44 Oeste 0 -- -- 71
2020-05-10 15:00:00 21.3 25 Noroeste 42 Noroeste 0 -- -- 63
2020-05-10 14:00:00 22.3 19 Noroeste 36 Oeste 0 -- -- 57
2020-05-10 13:00:00 22.3 16 Noroeste 33 Noroeste 0 -- -- 57
2020-05-10 12:00:00 20.7 16 Noroeste 37 Oeste 0 -- -- 65
2020-05-10 11:00:00 19 19 Noroeste 32 Oeste 0 -- -- 77
2020-05-10 10:00:00 18 15 Noroeste 30 Noroeste 0 -- -- 81
2020-05-10 09:00:00 18 15 Noroeste 32 Noroeste 0 -- -- 80
2020-05-10 08:00:00 17.2 11 Noroeste 23 Noroeste 0 -- -- 81
2020-05-10 07:00:00 16.7 11 Noroeste 21 Noroeste 0 -- -- 83
2020-05-10 06:00:00 16.8 10 Noroeste 23 Noroeste 0 -- -- 81
2020-05-10 05:00:00 17.2 14 Noroeste 31 Noroeste 0 -- -- 83
2020-05-10 04:00:00 17.5 17 Noroeste 33 Noroeste 0 -- -- 83
2020-05-10 03:00:00 17.4 14 Noroeste 25 Noroeste 0 -- -- 82
2020-05-10 02:00:00 17.5 14 Noroeste 32 Noroeste 0 -- -- 81
2020-05-10 01:00:00 17.7 19 Noroeste 36 Noroeste 0 -- -- 80
2020-05-10 00:00:00 17.9 18 Noroeste 33 Noroeste 0 -- -- 81
2020-05-09 23:00:00 17.9 16 Noroeste 36 Noroeste 0 -- -- 80
2020-05-09 22:00:00 18.2 18 Noroeste 36 Noroeste 0 -- -- 82
2020-05-09 21:00:00 18.4 16 Noroeste 34 Noroeste 0 -- -- 81
2020-05-09 20:00:00 19 22 Noroeste 38 Noroeste 0 -- -- 78
2020-05-09 19:00:00 19.4 20 Noroeste 39 Noroeste 0 -- -- 79
2020-05-09 18:00:00 20.6 19 Noroeste 39 Oeste 0 -- -- 72
2020-05-09 17:00:00 21.5 19 Noroeste 39 Noroeste 0 -- -- 68
2020-05-09 16:00:00 20.7 24 Noroeste 39 Noroeste 0 -- -- 72
2020-05-09 15:00:00 21.5 20 Noroeste 39 Noroeste 0 -- -- 68
2020-05-09 14:00:00 20.4 19 Noroeste 44 Noroeste 0 -- -- 76
2020-05-09 13:00:00 21.1 18 Noroeste 31 Oeste 0 -- -- 70
2020-05-09 12:00:00 21.3 17 Noroeste 31 Noroeste 0 -- -- 68
2020-05-09 11:00:00 21.7 13 Noroeste 24 Noroeste 0 -- -- 63
2020-05-09 10:00:00 20.3 12 Noroeste 26 Noroeste 0 -- -- 66
2020-05-09 09:00:00 18.5 13 Noroeste 29 Oeste 0 -- -- 78
2020-05-09 08:00:00 17.1 13 Oeste 30 Noroeste 0 -- -- 83
2020-05-09 07:00:00 16.9 13 Noroeste 27 Oeste 0 -- -- 82
2020-05-09 06:00:00 16.7 13 Oeste 26 Oeste 0 -- -- 83
2020-05-09 05:00:00 16.8 14 Oeste 28 Oeste 0 -- -- 81
2020-05-09 04:00:00 16.8 13 Oeste 25 Oeste 0 -- -- 83
2020-05-09 03:00:00 16.6 8 Oeste 18 Oeste 0 -- -- 82
2020-05-09 02:00:00 17.1 9 Oeste 16 Noroeste 0 -- -- 80
2020-05-09 01:00:00 17.1 8 Oeste 17 Oeste 0 -- -- 79
2020-05-09 00:00:00 17.4 7 Oeste 14 Noroeste 0 -- -- 82
2020-05-08 23:00:00 17.7 9 Noroeste 18 Noroeste 0 -- -- 83
2020-05-08 22:00:00 17.8 10 Noroeste 23 Noroeste 0 -- -- 82
2020-05-08 21:00:00 18.1 11 Noroeste 28 Noroeste 0 -- -- 81
2020-05-08 20:00:00 18.6 13 Noroeste 29 Noroeste 0 -- -- 80
2020-05-08 19:00:00 19.5 18 Noroeste 28 Noroeste 0 -- -- 74
2020-05-08 18:00:00 20 16 Noroeste 29 Oeste 0 -- -- 73
2020-05-08 17:00:00 20.8 15 Noroeste 28 Noroeste 0 -- -- 67
2020-05-08 16:00:00 20.8 18 Noroeste 31 Noroeste 0 -- -- 64
2020-05-08 15:00:00 21 18 Noroeste 34 Noroeste 0 -- -- 65
2020-05-08 14:00:00 21 17 Noroeste 31 Noroeste 0 -- -- 66
2020-05-08 13:00:00 21.1 17 Noroeste 27 Noroeste 0 -- -- 61
2020-05-08 12:00:00 20.4 13 Noroeste 26 Noroeste 0 -- -- 67
2020-05-08 11:00:00 19.5 12 Noroeste 27 Noroeste 0 -- -- 70
2020-05-08 10:00:00 18.9 12 Noroeste 24 Oeste 0 -- -- 73
2020-05-08 09:00:00 17.3 10 Noroeste 18 Oeste 0 -- -- 77
2020-05-08 08:00:00 15.9 3 Oeste 17 Oeste 0 -- -- 77
2020-05-08 07:00:00 15.2 7 Oeste 14 Oeste 0 -- -- 77
2020-05-08 06:00:00 15.7 8 Oeste 17 Oeste 0 -- -- 78
2020-05-08 05:00:00 15.8 7 Oeste 15 Oeste 0 -- -- 81
2020-05-08 04:00:00 16.1 8 Oeste 16 Oeste 0 -- -- 82
2020-05-08 03:00:00 16.6 6 Noroeste 23 Noroeste 0 -- -- 82
2020-05-08 02:00:00 17 9 Noroeste 22 Noroeste 0 -- -- 80
2020-05-08 01:00:00 17.1 10 Noroeste 21 Noroeste 0 -- -- 80
2020-05-08 00:00:00 17.4 13 Noroeste 23 Noroeste 0 -- -- 80
2020-05-07 23:00:00 17.6 15 Noroeste 28 Noroeste 0 -- -- 81
2020-05-07 22:00:00 17.7 12 Noroeste 21 Noroeste 0 -- -- 79
2020-05-07 21:00:00 17.9 10 Noroeste 30 Oeste 0 -- -- 78
2020-05-07 20:00:00 18.6 13 Noroeste 22 Noroeste 0 -- -- 76
2020-05-07 19:00:00 19.4 12 Noroeste 26 Noroeste 0 -- -- 69
2020-05-07 18:00:00 20.3 15 Noroeste 27 Noroeste 0 -- -- 65
2020-05-07 17:00:00 20.4 16 Noroeste 30 Noroeste 0 -- -- 64
2020-05-07 16:00:00 21 15 Noroeste 28 Noroeste 0 -- -- 62
2020-05-07 15:00:00 20.6 15 Norte 27 Norte 0 -- -- 62
2020-05-07 14:00:00 20.6 15 Noroeste 32 Noroeste 0 -- -- 61
2020-05-07 13:00:00 20.9 14 Norte 24 Norte 0 -- -- 59
2020-05-07 12:00:00 19.6 12 Noroeste 29 Noroeste 0 -- -- 71
2020-05-07 11:00:00 19.3 12 Noroeste 23 Noroeste 0 -- -- 71
2020-05-07 10:00:00 18.2 12 Noroeste 25 Noroeste 0 -- -- 75
2020-05-07 09:00:00 17.6 13 Noroeste 21 Noroeste 0 -- -- 79
2020-05-07 08:00:00 16.9 9 Oeste 17 Oeste 0 -- -- 81
2020-05-07 07:00:00 16.3 8 Oeste 18 Oeste 0 -- -- 83
2020-05-07 06:00:00 16.3 8 Oeste 18 Oeste 0 -- -- 83
2020-05-07 05:00:00 16.4 9 Noroeste 18 Noroeste 0 -- -- 82
2020-05-07 04:00:00 16.4 6 Oeste 14 Noroeste 0 -- -- 83
2020-05-07 03:00:00 16.5 7 Noroeste 13 Oeste 0 -- -- 85
2020-05-07 02:00:00 16.8 7 Noroeste 15 Noroeste 0 -- -- 84
2020-05-07 01:00:00 16.8 5 Noroeste 17 Noroeste 0 -- -- 84
2020-05-07 00:00:00 17 9 Noroeste 15 Noroeste 0 -- -- 84
2020-05-06 23:00:00 17.4 10 Noroeste 16 Noroeste 0 -- -- 83
2020-05-06 22:00:00 17.3 7 Noroeste 17 Noroeste 0 -- -- 81
2020-05-06 21:00:00 17.5 9 Noroeste 19 Oeste 0 -- -- 81
2020-05-06 20:00:00 17.8 11 Noroeste 22 Noroeste 0 -- -- 79
2020-05-06 19:00:00 18.5 11 Norte 24 Norte 0 -- -- 77
2020-05-06 18:00:00 19.2 13 Noroeste 22 Noroeste 0 -- -- 75
2020-05-06 17:00:00 19.9 12 Norte 26 Noroeste 0 -- -- 69
2020-05-06 16:00:00 20.9 14 Noroeste 27 Noroeste 0 -- -- 65
2020-05-06 15:00:00 20.4 12 Noroeste 22 Norte 0 -- -- 68
2020-05-06 14:00:00 20.2 13 Noroeste 24 Noroeste 0 -- -- 69
2020-05-06 13:00:00 19.9 10 Norte 17 Noroeste 0 -- -- 70
2020-05-06 12:00:00 19.4 11 Norte 19 Norte 0 -- -- 70
2020-05-06 11:00:00 18.9 9 Noroeste 19 Noroeste 0 -- -- 71
2020-05-06 10:00:00 17.6 10 Noroeste 17 Noroeste 0 -- -- 81
2020-05-06 09:00:00 17.3 7 Noroeste 15 Noroeste 0 -- -- 78
2020-05-06 08:00:00 15.9 3 Oeste 8 Oeste 0 -- -- 81
2020-05-06 07:00:00 15.6 2 Sudoeste 9 Sudoeste 0 -- -- 80
2020-05-06 06:00:00 15.4 3 Sudoeste 9 Sudoeste 0 -- -- 81
2020-05-06 05:00:00 15.6 4 Sudoeste 8 Oeste 0 -- -- 79
2020-05-06 04:00:00 15.9 2 Sur 7 Sudoeste 0 -- -- 79
2020-05-06 03:00:00 16.1 3 Oeste 10 Oeste 0 -- -- 78
2020-05-06 02:00:00 16 4 Oeste 10 Oeste 0 -- -- 77
2020-05-06 01:00:00 16.1 4 Oeste 10 Sudoeste 0 -- -- 76
2020-05-06 00:00:00 16.4 4 Oeste 13 Noroeste 0 -- -- 75
2020-05-05 23:00:00 17.1 7 Noroeste 15 Noroeste 0 -- -- 75
2020-05-05 22:00:00 17.2 9 Noroeste 18 Noroeste 0 -- -- 74
2020-05-05 21:00:00 17.5 12 Noroeste 20 Noroeste 0 -- -- 73
2020-05-05 20:00:00 18.4 12 Noroeste 22 Noroeste 0 -- -- 69
2020-05-05 19:00:00 19.1 12 Noroeste 28 Noroeste 0 -- -- 66
2020-05-05 18:00:00 20 12 Noroeste 23 Noroeste 0 -- -- 63
2020-05-05 17:00:00 20.5 14 Noroeste 24 Norte 0 -- -- 60
2020-05-05 16:00:00 20.9 14 Noroeste 29 Noroeste 0 -- -- 57
2020-05-05 15:00:00 20.6 15 Noroeste 28 Noroeste 0 -- -- 60
2020-05-05 14:00:00 21.2 14 Noroeste 27 Norte 0 -- -- 59
2020-05-05 13:00:00 20.6 12 Norte 28 Norte 0 -- -- 59
2020-05-05 12:00:00 20.3 11 Norte 28 Norte 0 -- -- 61
2020-05-05 11:00:00 19.8 12 Noroeste 24 Noroeste 0 -- -- 62
2020-05-05 10:00:00 18.4 13 Noroeste 23 Noroeste 0 -- -- 68
2020-05-05 09:00:00 17.3 14 Noroeste 25 Noroeste 0 -- -- 70
2020-05-05 08:00:00 16.4 12 Noroeste 24 Oeste 0 -- -- 79
2020-05-05 07:00:00 16.1 10 Noroeste 21 Oeste 0 -- -- 82
2020-05-05 06:00:00 15.9 8 Oeste 18 Oeste 0 -- -- 84
2020-05-05 05:00:00 15.6 7 Oeste 13 Oeste 0 -- -- 84
2020-05-05 04:00:00 16 6 Oeste 14 Oeste 0 -- -- 84
2020-05-05 03:00:00 16.3 7 Oeste 11 Oeste 0 -- -- 84
2020-05-05 02:00:00 17 7 Noroeste 13 Noroeste 0 -- -- 82
2020-05-05 01:00:00 17.5 6 Noroeste 15 Noroeste 0 -- -- 80
2020-05-05 00:00:00 17.8 9 Noroeste 14 Noroeste 0 -- -- 78
2020-05-04 23:00:00 17.9 9 Noroeste 15 Noroeste 0 -- -- 77
2020-05-04 22:00:00 18.1 8 Noroeste 18 Noroeste 0 -- -- 76
2020-05-04 21:00:00 18 9 Noroeste 19 Norte 0 -- -- 74
2020-05-04 20:00:00 18.5 13 Noroeste 23 Noroeste 0 -- -- 76
2020-05-04 19:00:00 18.7 12 Noroeste 21 Noroeste 0 -- -- 81
2020-05-04 18:00:00 19.8 8 Norte 19 Norte 0 -- -- 74
2020-05-04 17:00:00 20.5 12 Noroeste 20 Noroeste 0 -- -- 68
2020-05-04 16:00:00 20.5 5 Nordeste 12 Nordeste 0 -- -- 75
2020-05-04 15:00:00 19.8 6 Nordeste 13 Nordeste 0 -- -- 76
2020-05-04 14:00:00 19.5 5 Nordeste 13 Nordeste 0 -- -- 78
2020-05-04 13:00:00 19.6 8 Nordeste 17 Nordeste 0 -- -- 77
2020-05-04 12:00:00 19.6 7 Norte 13 Norte 0 -- -- 76
2020-05-04 11:00:00 19.5 4 Nordeste 11 Norte 0 -- -- 75
2020-05-04 10:00:00 18.6 5 Norte 16 Noroeste 0 -- -- 76
2020-05-04 09:00:00 18.1 4 Norte 9 Noroeste 0 -- -- 82
2020-05-04 08:00:00 17.1 3 Oeste 6 Oeste 0 -- -- 89
2020-05-04 07:00:00 17 3 Oeste 10 Noroeste 0 -- -- 87
2020-05-04 06:00:00 17.4 8 Noroeste 18 Oeste 0 -- -- 84
2020-05-04 05:00:00 17.8 6 Noroeste 12 Oeste 0 -- -- 82
2020-05-04 04:00:00 17.5 2 Noroeste 8 Sur 0 -- -- 80
2020-05-04 03:00:00 17.1 2 Noroeste 7 Sur 0 -- -- 84
2020-05-04 02:00:00 17 5 Sur 9 Sudoeste 0 -- -- 84
2020-05-04 01:00:00 17.5 4 Sur 8 Sudoeste 0 -- -- 85
2020-05-04 00:00:00 18.1 5 Noroeste 17 Noroeste 0 -- -- 84
2020-05-03 23:00:00 17.8 8 Noroeste 19 Noroeste 0 -- -- 86
2020-05-03 22:00:00 18 8 Noroeste 17 Noroeste 0 -- -- 85
2020-05-03 21:00:00 19 6 Noroeste 13 Noroeste 0 -- -- 80
2020-05-03 20:00:00 20.2 4 Nordeste 10 Nordeste 0 -- -- 77
2020-05-03 19:00:00 20.6 5 Nordeste 21 Este 0 -- -- 76
2020-05-03 18:00:00 21 8 Nordeste 19 Sudeste 0 -- -- 73
2020-05-03 17:00:00 21.7 9 Este 21 Este 0 -- -- 68
2020-05-03 16:00:00 22 10 Este 20 Este 0 -- -- 68
2020-05-03 15:00:00 21.8 10 Nordeste 21 Este 0 -- -- 67
2020-05-03 14:00:00 22.1 8 Nordeste 18 Nordeste 0 -- -- 66
2020-05-03 13:00:00 21.6 6 Nordeste 15 Este 0 -- -- 67
2020-05-03 12:00:00 20.3 9 Nordeste 16 Este 0 -- -- 72
2020-05-03 11:00:00 19.7 6 Nordeste 12 Noroeste 0 -- -- 73
2020-05-03 10:00:00 18.1 3 Noroeste 10 Noroeste 0 -- -- 78
2020-05-03 09:00:00 16.8 4 Noroeste 8 Este 0 -- -- 83
2020-05-03 08:00:00 15.8 4 Sur 9 Oeste 0 -- -- 86
2020-05-03 07:00:00 15.9 3 Oeste 14 Oeste 0 -- -- 89
2020-05-03 06:00:00 15.6 6 Oeste 14 Noroeste 0 -- -- 91
2020-05-03 05:00:00 15.6 4 Sudeste 10 Sudeste 0 -- -- 92
2020-05-03 04:00:00 15.1 3 Sudoeste 9 Oeste 0 -- -- 91
2020-05-03 03:00:00 15.6 5 Oeste 18 Noroeste 0 -- -- 90
2020-05-03 02:00:00 16.3 10 Oeste 23 Oeste 0 -- -- 91
2020-05-03 01:00:00 16.5 12 Noroeste 19 Oeste 0 -- -- 92
2020-05-03 00:00:00 16.9 7 Oeste 17 Oeste 0 -- -- 91